Time;durP1;ratioP1;P1;durP2;ratioP2;P2;SDS_P1;SDS_P2;PMS_P1;PMS_P2;Temp;Humidity;BMP_temperature;BMP_pressure;BME280_temperature;BME280_humidity;BME280_pressure;Samples;Min_cycle;Max_cycle;Signal;HPM_P1;HPM_P2
2024/01/28 00:01:39;;;;;;;24.25;10.50;;;;;;;;;;4779352;29;20051;-94
2024/01/28 00:04:05;;;;;;;19.95;11.48;;;;;;;;;;4768600;30;20075;-94
2024/01/28 00:06:40;;;;;;;25.83;11.60;;;;;;;;;;4775801;30;20051;-95
2024/01/28 00:09:06;;;;;;;22.73;10.80;;;;;;;;;;4781788;30;20138;-94
2024/01/28 00:11:33;;;;;;;32.88;10.13;;;;;;;;;;4780905;30;20119;-94
2024/01/28 00:13:59;;;;;;;31.00;11.80;;;;;;;;;;4760905;30;20129;-95
2024/01/28 00:16:28;;;;;;;26.35;10.00;;;;;;;;;;4743045;30;20486;-94
2024/01/28 00:19:03;;;;;;;20.88;9.85;;;;;;;;;;4757190;30;20058;-94
2024/01/28 00:21:29;;;;;;;18.58;9.68;;;;;;;;;;4763985;29;20050;-95
2024/01/28 00:23:56;;;;;;;19.88;10.02;;;;;;;;;;4792705;29;20055;-95
2024/01/28 00:26:24;;;;;;;16.23;10.00;;;;;;;;;;4791504;29;20105;-94
2024/01/28 00:28:50;;;;;;;24.38;11.43;;;;;;;;;;4773918;29;20051;-95
2024/01/28 00:31:19;;;;;;;20.58;11.07;;;;;;;;;;4774617;30;20047;-95
2024/01/28 00:33:45;;;;;;;20.02;10.55;;;;;;;;;;4774927;30;20055;-96
2024/01/28 00:36:17;;;;;;;22.85;9.45;;;;;;;;;;4786169;29;20566;-95
2024/01/28 00:38:44;;;;;;;16.23;9.55;;;;;;;;;;4789344;29;20074;-94
2024/01/28 00:41:10;;;;;;;23.30;10.32;;;;;;;;;;4774232;30;20500;-95
2024/01/28 00:43:38;;;;;;;23.05;10.50;;;;;;;;;;4774285;30;20055;-95
2024/01/28 00:46:04;;;;;;;26.08;10.68;;;;;;;;;;4774407;30;20054;-96
2024/01/28 00:48:30;;;;;;;17.13;10.25;;;;;;;;;;4774385;30;20087;-94
2024/01/28 00:50:56;;;;;;;24.92;11.35;;;;;;;;;;4773954;30;20047;-95
2024/01/28 00:53:23;;;;;;;22.65;10.32;;;;;;;;;;4767598;30;20135;-94
2024/01/28 00:55:49;;;;;;;16.50;9.38;;;;;;;;;;4764641;30;20051;-95
2024/01/28 00:58:15;;;;;;;18.35;9.50;;;;;;;;;;4770237;30;20079;-95
2024/01/28 01:00:41;;;;;;;15.30;9.57;;;;;;;;;;4774105;30;20055;-96
2024/01/28 01:03:07;;;;;;;22.92;9.32;;;;;;;;;;4759559;30;20130;-95
2024/01/28 01:05:36;;;;;;;19.92;9.38;;;;;;;;;;4774033;30;20052;-95
2024/01/28 01:08:02;;;;;;;22.90;9.27;;;;;;;;;;4758824;30;20122;-95
2024/01/28 01:10:28;;;;;;;24.67;9.32;;;;;;;;;;4773986;30;20055;-95
2024/01/28 01:12:54;;;;;;;16.38;8.98;;;;;;;;;;4774082;30;20043;-95
2024/01/28 01:15:26;;;;;;;19.05;9.50;;;;;;;;;;4774056;30;20164;-96
2024/01/28 01:17:55;;;;;;;32.45;10.20;;;;;;;;;;4773346;30;20066;-95
2024/01/28 01:20:24;;;;;;;16.73;9.32;;;;;;;;;;4772984;30;20055;-94
2024/01/28 01:22:50;;;;;;;20.80;10.73;;;;;;;;;;4773977;30;20191;-95
2024/01/28 01:25:19;;;;;;;15.48;8.80;;;;;;;;;;4773216;30;20055;-95
2024/01/28 01:27:48;;;;;;;21.02;9.55;;;;;;;;;;4774131;30;20087;-96
2024/01/28 01:30:17;;;;;;;30.08;9.13;;;;;;;;;;4773169;30;20047;-95
2024/01/28 01:32:43;;;;;;;14.82;8.77;;;;;;;;;;4773041;30;20087;-95
2024/01/28 01:35:10;;;;;;;16.02;8.15;;;;;;;;;;4773385;30;20047;-95
2024/01/28 01:37:36;;;;;;;30.15;10.48;;;;;;;;;;4770751;30;20047;-95
2024/01/28 01:40:03;;;;;;;22.83;9.95;;;;;;;;;;4755868;30;20645;-94
2024/01/28 01:42:30;;;;;;;18.25;9.88;;;;;;;;;;4755347;30;20502;-95
2024/01/28 01:44:56;;;;;;;24.92;9.07;;;;;;;;;;4767146;30;20133;-95
2024/01/28 01:47:23;;;;;;;21.30;8.90;;;;;;;;;;4773034;30;20047;-95
2024/01/28 01:49:49;;;;;;;18.50;9.65;;;;;;;;;;4773372;30;20069;-95
2024/01/28 01:52:16;;;;;;;22.45;9.27;;;;;;;;;;4773231;30;20054;-94
2024/01/28 01:54:50;;;;;;;18.25;8.13;;;;;;;;;;4758787;30;20100;-94
2024/01/28 01:57:20;;;;;;;21.10;8.95;;;;;;;;;;4773055;30;20166;-94
2024/01/28 01:59:49;;;;;;;18.52;9.35;;;;;;;;;;4772836;30;20031;-94
2024/01/28 02:02:16;;;;;;;20.42;8.60;;;;;;;;;;4773031;30;20192;-94
2024/01/28 02:04:43;;;;;;;15.70;9.13;;;;;;;;;;4772892;30;20055;-95
2024/01/28 02:07:10;;;;;;;22.40;10.23;;;;;;;;;;4768860;29;20047;-95
2024/01/28 02:09:36;;;;;;;24.92;10.15;;;;;;;;;;4772766;30;20066;-95
2024/01/28 02:12:02;;;;;;;16.95;8.30;;;;;;;;;;4772879;30;20082;-95
2024/01/28 02:14:29;;;;;;;18.80;9.23;;;;;;;;;;4772833;30;20171;-95
2024/01/28 02:16:55;;;;;;;15.73;8.57;;;;;;;;;;4761501;30;20054;-95
2024/01/28 02:19:22;;;;;;;19.05;9.02;;;;;;;;;;4755123;30;20087;-94
2024/01/28 02:21:49;;;;;;;15.85;9.00;;;;;;;;;;4754656;30;20052;-94
2024/01/28 02:24:15;;;;;;;18.60;8.98;;;;;;;;;;4772506;30;20053;-95
2024/01/28 02:26:41;;;;;;;29.60;10.77;;;;;;;;;;4772674;30;20066;-95
2024/01/28 02:29:08;;;;;;;16.85;9.18;;;;;;;;;;4772341;30;20071;-95
2024/01/28 02:31:34;;;;;;;17.60;8.68;;;;;;;;;;4773210;30;20066;-94
2024/01/28 02:34:00;;;;;;;19.50;9.48;;;;;;;;;;4772625;30;20155;-95
2024/01/28 02:36:27;;;;;;;14.20;8.88;;;;;;;;;;4772359;30;20043;-95
2024/01/28 02:38:59;;;;;;;21.10;9.25;;;;;;;;;;4772825;30;20090;-95
2024/01/28 02:41:28;;;;;;;19.98;9.35;;;;;;;;;;4771939;30;20059;-95
2024/01/28 02:43:54;;;;;;;20.63;8.55;;;;;;;;;;4772174;30;20047;-95
2024/01/28 02:46:21;;;;;;;23.15;8.15;;;;;;;;;;4772833;29;20059;-92
2024/01/28 02:48:47;;;;;;;16.00;8.18;;;;;;;;;;4757647;30;20047;-95
2024/01/28 02:51:13;;;;;;;14.98;8.73;;;;;;;;;;4767669;30;20058;-94
2024/01/28 02:53:39;;;;;;;15.93;8.35;;;;;;;;;;4764982;30;20147;-94
2024/01/28 02:56:06;;;;;;;23.73;8.98;;;;;;;;;;4763645;30;20047;-94
2024/01/28 02:58:33;;;;;;;14.82;7.80;;;;;;;;;;4780071;30;20077;-94
2024/01/28 03:00:59;;;;;;;14.43;7.85;;;;;;;;;;4778193;30;20088;-94
2024/01/28 03:03:28;;;;;;;18.25;7.63;;;;;;;;;;4778004;30;20051;-95
2024/01/28 03:05:54;;;;;;;13.07;7.60;;;;;;;;;;4777819;30;20138;-94
2024/01/28 03:08:21;;;;;;;15.63;8.10;;;;;;;;;;4777733;30;20055;-95
2024/01/28 03:10:47;;;;;;;18.13;8.70;;;;;;;;;;4777362;30;20051;-94
2024/01/28 03:13:13;;;;;;;21.05;8.48;;;;;;;;;;4777000;30;20043;-94
2024/01/28 03:15:39;;;;;;;24.45;10.10;;;;;;;;;;4767397;30;20133;-93
2024/01/28 03:18:06;;;;;;;16.15;9.25;;;;;;;;;;4777079;30;20035;-94
2024/01/28 03:20:32;;;;;;;20.02;9.32;;;;;;;;;;4777416;30;20485;-94
2024/01/28 03:22:58;;;;;;;21.73;9.27;;;;;;;;;;4777062;30;20043;-94
2024/01/28 03:25:24;;;;;;;20.88;8.75;;;;;;;;;;4777582;30;20054;-94
2024/01/28 03:27:51;;;;;;;22.52;9.63;;;;;;;;;;4777441;30;20051;-94
2024/01/28 03:30:17;;;;;;;25.00;10.13;;;;;;;;;;4777105;30;20079;-92
2024/01/28 03:32:43;;;;;;;19.83;11.55;;;;;;;;;;4762831;30;20519;-95
2024/01/28 03:35:10;;;;;;;20.80;10.55;;;;;;;;;;4777858;30;20417;-94
2024/01/28 03:37:36;;;;;;;18.88;9.57;;;;;;;;;;4787771;29;20182;-95
2024/01/28 03:40:02;;;;;;;17.45;10.10;;;;;;;;;;4777487;30;20059;-93
2024/01/28 03:42:29;;;;;;;20.33;10.45;;;;;;;;;;4777821;30;20050;-95
2024/01/28 03:44:55;;;;;;;26.35;10.55;;;;;;;;;;4777804;30;20399;-94
2024/01/28 03:47:24;;;;;;;23.55;12.07;;;;;;;;;;4767647;29;20110;-96
2024/01/28 03:49:50;;;;;;;18.92;10.77;;;;;;;;;;4759985;30;20414;-95
2024/01/28 03:52:17;;;;;;;23.05;10.55;;;;;;;;;;4760211;30;20464;-95
2024/01/28 03:54:43;;;;;;;28.85;12.65;;;;;;;;;;4760533;30;20424;-95
2024/01/28 03:57:09;;;;;;;21.17;11.25;;;;;;;;;;4768985;24;20051;-95
2024/01/28 03:59:38;;;;;;;23.95;11.15;;;;;;;;;;4759801;30;20066;-95
2024/01/28 04:02:04;;;;;;;20.65;10.20;;;;;;;;;;4760300;30;20055;-95
2024/01/28 04:04:30;;;;;;;21.30;10.93;;;;;;;;;;4759530;30;20055;-95
2024/01/28 04:06:57;;;;;;;22.52;9.73;;;;;;;;;;4760226;29;20055;-95
2024/01/28 04:09:26;;;;;;;24.63;11.65;;;;;;;;;;4760576;29;20077;-95
2024/01/28 04:11:52;;;;;;;26.48;10.73;;;;;;;;;;4759691;29;20055;-94
2024/01/28 04:14:18;;;;;;;18.08;10.10;;;;;;;;;;4760204;30;20043;-94
2024/01/28 04:16:45;;;;;;;25.52;10.68;;;;;;;;;;4747435;30;20056;-94
2024/01/28 04:19:11;;;;;;;18.42;10.10;;;;;;;;;;4742283;30;20082;-95
2024/01/28 04:21:37;;;;;;;16.38;9.35;;;;;;;;;;4742304;30;20126;-95
2024/01/28 04:24:03;;;;;;;26.90;11.38;;;;;;;;;;4742297;30;20139;-95
2024/01/28 04:26:30;;;;;;;19.23;10.82;;;;;;;;;;4742322;30;20053;-95
2024/01/28 04:28:56;;;;;;;25.95;11.27;;;;;;;;;;4753124;29;20387;-94
2024/01/28 04:31:26;;;;;;;18.52;10.27;;;;;;;;;;4745188;30;20058;-94
2024/01/28 04:33:57;;;;;;;21.75;11.32;;;;;;;;;;4759659;29;20463;-95
2024/01/28 04:36:26;;;;;;;17.42;9.52;;;;;;;;;;4759624;30;20059;-95
2024/01/28 04:38:55;;;;;;;22.73;9.88;;;;;;;;;;4745977;29;20122;-95
2024/01/28 04:41:21;;;;;;;20.75;9.98;;;;;;;;;;4759856;30;20474;-96
2024/01/28 04:43:47;;;;;;;15.63;9.95;;;;;;;;;;4759585;29;20054;-95
2024/01/28 04:46:23;;;;;;;19.40;9.50;;;;;;;;;;4758824;29;20087;-94
2024/01/28 04:48:50;;;;;;;19.98;10.55;;;;;;;;;;4747446;30;20078;-96
2024/01/28 04:51:21;;;;;;;16.15;9.45;;;;;;;;;;4759902;29;20251;-96
2024/01/28 04:53:47;;;;;;;15.45;9.32;;;;;;;;;;4758998;29;20097;-96
2024/01/28 04:56:19;;;;;;;17.80;11.07;;;;;;;;;;4759839;29;20058;-96
2024/01/28 04:58:45;;;;;;;19.38;10.82;;;;;;;;;;4759112;29;20077;-95
2024/01/28 05:01:18;;;;;;;16.38;11.55;;;;;;;;;;4759103;29;20047;-96
2024/01/28 05:03:55;;;;;;;19.67;11.40;;;;;;;;;;4744995;29;20108;-96
2024/01/28 05:06:34;;;;;;;17.00;10.15;;;;;;;;;;4759333;29;20058;-96
2024/01/28 05:09:24;;;;;;;18.48;10.05;;;;;;;;;;4753552;29;20051;-96
2024/01/28 05:11:50;;;;;;;15.20;9.75;;;;;;;;;;4758430;29;20051;-96
2024/01/28 05:14:25;;;;;;;18.88;9.65;;;;;;;;;;4758552;29;20054;-96
2024/01/28 05:16:51;;;;;;;23.30;10.25;;;;;;;;;;4756511;30;20099;-96
2024/01/28 05:19:20;;;;;;;17.63;11.20;;;;;;;;;;4773543;29;20043;-95
2024/01/28 05:21:46;;;;;;;26.10;9.55;;;;;;;;;;4743853;29;20052;-96
2024/01/28 05:24:12;;;;;;;12.07;9.00;;;;;;;;;;4758552;30;20047;-96
2024/01/28 05:26:42;;;;;;;18.42;9.85;;;;;;;;;;4759602;29;20051;-95
2024/01/28 05:29:11;;;;;;;20.33;10.15;;;;;;;;;;4762585;30;20051;-95
2024/01/28 05:31:37;;;;;;;17.38;10.95;;;;;;;;;;4766094;30;20051;-96
2024/01/28 05:34:03;;;;;;;13.90;9.23;;;;;;;;;;4764986;30;20096;-95
2024/01/28 05:36:32;;;;;;;22.17;9.73;;;;;;;;;;4761160;30;20055;-96
2024/01/28 05:38:58;;;;;;;16.83;10.18;;;;;;;;;;4759027;30;20046;-94
2024/01/28 05:41:24;;;;;;;22.30;9.80;;;;;;;;;;4758902;30;21937;-96
2024/01/28 05:43:50;;;;;;;18.40;9.52;;;;;;;;;;4759347;30;20059;-96
2024/01/28 05:46:19;;;;;;;19.20;9.82;;;;;;;;;;4759080;30;20066;-95
2024/01/28 05:48:45;;;;;;;14.50;9.70;;;;;;;;;;4758298;29;20047;-95
2024/01/28 05:51:12;;;;;;;16.65;10.10;;;;;;;;;;4745426;30;20059;-95
2024/01/28 05:53:40;;;;;;;20.75;10.93;;;;;;;;;;4740776;30;20663;-96
2024/01/28 05:56:12;;;;;;;18.65;11.23;;;;;;;;;;4740879;30;20055;-95
2024/01/28 05:58:38;;;;;;;23.15;10.05;;;;;;;;;;4746823;29;20713;-95
2024/01/28 06:01:06;;;;;;;22.38;10.05;;;;;;;;;;4758784;30;20051;-95
2024/01/28 06:03:38;;;;;;;15.68;9.75;;;;;;;;;;4727162;30;20052;-95
2024/01/28 06:06:04;;;;;;;17.55;9.75;;;;;;;;;;4740249;30;20482;-96
2024/01/28 06:08:32;;;;;;;22.52;10.85;;;;;;;;;;4740410;30;20051;-95
2024/01/28 06:11:13;;;;;;;16.83;9.18;;;;;;;;;;5144590;27;1376298;-95
2024/01/28 06:13:40;;;;;;;17.27;11.48;;;;;;;;;;5135287;27;20379;-96
2024/01/28 06:16:08;;;;;;;16.20;10.35;;;;;;;;;;5117237;27;20051;-95
2024/01/28 06:18:41;;;;;;;16.35;10.40;;;;;;;;;;5100592;27;20047;-95
2024/01/28 06:21:07;;;;;;;22.50;11.43;;;;;;;;;;5117078;27;20483;-96
2024/01/28 06:23:34;;;;;;;17.35;10.55;;;;;;;;;;5116827;27;20475;-95
2024/01/28 06:26:02;;;;;;;18.58;10.18;;;;;;;;;;5117478;27;20046;-95
2024/01/28 06:28:35;;;;;;;14.85;10.18;;;;;;;;;;5145488;27;20039;-95
2024/01/28 06:31:01;;;;;;;16.77;9.48;;;;;;;;;;5113498;27;20039;-95
2024/01/28 06:36:21;;;;;;;18.65;11.07;;;;;;;;;;5133883;27;20043;-96
2024/01/28 06:38:50;;;;;;;21.30;11.70;;;;;;;;;;5134251;27;20042;-95
2024/01/28 06:41:22;;;;;;;18.00;9.52;;;;;;;;;;5137481;27;20042;-95
2024/01/28 06:43:48;;;;;;;17.20;10.13;;;;;;;;;;5124921;27;20166;-95
2024/01/28 06:46:19;;;;;;;18.38;11.20;;;;;;;;;;5116887;27;20088;-95
2024/01/28 06:48:45;;;;;;;14.00;9.60;;;;;;;;;;5129066;27;20041;-95
2024/01/28 06:51:14;;;;;;;16.95;8.70;;;;;;;;;;5137284;27;20050;-96
2024/01/28 06:53:40;;;;;;;17.58;9.13;;;;;;;;;;5117912;27;20038;-95
2024/01/28 06:56:06;;;;;;;18.60;9.73;;;;;;;;;;5116770;27;20203;-96
2024/01/28 06:58:37;;;;;;;21.63;10.40;;;;;;;;;;5112515;27;20043;-95
2024/01/28 07:01:03;;;;;;;19.60;9.57;;;;;;;;;;5107972;27;20058;-95
2024/01/28 07:03:29;;;;;;;15.35;10.15;;;;;;;;;;5118732;27;20135;-96
2024/01/28 07:06:03;;;;;;;16.00;9.82;;;;;;;;;;5136524;27;20098;-95
2024/01/28 07:08:35;;;;;;;21.98;10.25;;;;;;;;;;5116444;27;20038;-94
2024/01/28 07:11:04;;;;;;;19.48;9.40;;;;;;;;;;5123813;27;20086;-95
2024/01/28 07:13:40;;;;;;;17.88;10.05;;;;;;;;;;5132410;27;20108;-96
2024/01/28 07:16:12;;;;;;;24.00;10.05;;;;;;;;;;5132523;27;20047;-95
2024/01/28 07:18:41;;;;;;;22.17;9.88;;;;;;;;;;5116028;27;20039;-95
2024/01/28 07:21:10;;;;;;;18.98;9.50;;;;;;;;;;5106459;28;20043;-96
2024/01/28 07:24:00;;;;;;;20.35;9.15;;;;;;;;;;5087152;27;20035;-95
2024/01/28 07:26:37;;;;;;;17.15;9.43;;;;;;;;;;5104606;27;20035;-93
2024/01/28 07:29:06;;;;;;;15.70;10.20;;;;;;;;;;5118615;27;20047;-96
2024/01/28 07:31:40;;;;;;;16.85;10.85;;;;;;;;;;5118278;27;20058;-96
2024/01/28 07:36:50;;;;;;;17.05;9.82;;;;;;;;;;5056552;22;20056;-95
2024/01/28 07:39:19;;;;;;;18.83;9.35;;;;;;;;;;5006077;28;20080;-95
2024/01/28 07:41:46;;;;;;;17.23;9.00;;;;;;;;;;5046490;28;20037;-95
2024/01/28 07:44:12;;;;;;;13.52;9.30;;;;;;;;;;5017452;28;20041;-96
2024/01/28 07:46:38;;;;;;;16.23;10.15;;;;;;;;;;5006155;28;20091;-96
2024/01/28 07:49:05;;;;;;;16.63;8.77;;;;;;;;;;5021618;28;20045;-95
2024/01/28 07:51:33;;;;;;;19.88;10.60;;;;;;;;;;5054635;28;20068;-95
2024/01/28 07:53:59;;;;;;;14.63;9.20;;;;;;;;;;5021277;28;20033;-95
2024/01/28 07:56:26;;;;;;;16.25;10.07;;;;;;;;;;5020107;28;20136;-94
2024/01/28 07:58:53;;;;;;;18.70;8.63;;;;;;;;;;5021044;28;20104;-95
2024/01/28 08:01:19;;;;;;;24.77;9.60;;;;;;;;;;5004910;28;20052;-95
2024/01/28 08:03:45;;;;;;;13.93;9.48;;;;;;;;;;5027092;28;20041;-94
2024/01/28 08:06:12;;;;;;;17.23;9.05;;;;;;;;;;5034647;28;20037;-96
2024/01/28 08:08:38;;;;;;;16.45;9.73;;;;;;;;;;5034544;28;20157;-95
2024/01/28 08:11:05;;;;;;;24.15;9.80;;;;;;;;;;5018245;28;20045;-95
2024/01/28 08:13:34;;;;;;;14.50;8.38;;;;;;;;;;5039770;28;20080;-94
2024/01/28 08:16:04;;;;;;;15.85;9.60;;;;;;;;;;5048863;28;20045;-95
2024/01/28 08:18:33;;;;;;;13.40;9.20;;;;;;;;;;5045350;28;20044;-95
2024/01/28 08:20:59;;;;;;;10.55;7.53;;;;;;;;;;5043991;28;20045;-95
2024/01/28 08:23:29;;;;;;;16.42;9.13;;;;;;;;;;5035009;28;20045;-96
2024/01/28 08:26:00;;;;;;;18.67;8.55;;;;;;;;;;5040175;28;20096;-96
2024/01/28 08:28:29;;;;;;;17.42;9.15;;;;;;;;;;5025565;28;20057;-96
2024/01/28 08:30:58;;;;;;;21.83;8.35;;;;;;;;;;5022317;28;20049;-95
2024/01/28 08:33:24;;;;;;;12.05;7.45;;;;;;;;;;5034535;28;20562;-95
2024/01/28 08:35:50;;;;;;;15.43;7.82;;;;;;;;;;5035656;28;20049;-96
2024/01/28 08:38:16;;;;;;;20.63;8.15;;;;;;;;;;5010650;28;20130;-95
2024/01/28 08:40:43;;;;;;;18.55;8.02;;;;;;;;;;5017236;28;20100;-96
2024/01/28 08:43:09;;;;;;;17.95;7.55;;;;;;;;;;5034732;28;20073;-96
2024/01/28 08:45:38;;;;;;;24.45;8.98;;;;;;;;;;5031691;28;20080;-94
2024/01/28 08:48:09;;;;;;;13.82;7.38;;;;;;;;;;5014477;28;20046;-95
2024/01/28 08:50:38;;;;;;;19.15;7.97;;;;;;;;;;5022181;28;20040;-96
2024/01/28 08:53:05;;;;;;;15.60;7.63;;;;;;;;;;5014391;28;20513;-96
2024/01/28 08:55:33;;;;;;;14.23;7.63;;;;;;;;;;5036322;28;20406;-95
2024/01/28 08:57:59;;;;;;;16.00;7.78;;;;;;;;;;5020659;28;20047;-94
2024/01/28 09:00:26;;;;;;;12.27;7.13;;;;;;;;;;5036273;28;20095;-96
2024/01/28 09:02:52;;;;;;;13.45;7.90;;;;;;;;;;5032746;28;20043;-94
2024/01/28 09:05:18;;;;;;;14.75;6.82;;;;;;;;;;5016684;28;20049;-96
2024/01/28 09:07:45;;;;;;;15.52;6.68;;;;;;;;;;5018386;28;20045;-96
2024/01/28 09:10:11;;;;;;;12.65;7.55;;;;;;;;;;5016668;28;20520;-95
2024/01/28 09:12:37;;;;;;;25.15;6.90;;;;;;;;;;5021801;28;20036;-95
2024/01/28 09:15:11;;;;;;;12.60;6.97;;;;;;;;;;5035928;28;20497;-96
2024/01/28 09:17:41;;;;;;;;;;;;;;;;;;5036752;28;20045;-96
2024/01/28 09:20:07;;;;;;;10.35;5.78;;;;;;;;;;5039127;28;19927;-96
2024/01/28 09:22:35;;;;;;;10.43;6.05;;;;;;;;;;5019079;28;20131;-96
2024/01/28 09:25:10;;;;;;;11.30;5.85;;;;;;;;;;5024436;28;20040;-96
2024/01/28 09:27:42;;;;;;;6.85;5.70;;;;;;;;;;5016963;28;20046;-96
2024/01/28 09:30:13;;;;;;;12.20;5.90;;;;;;;;;;5034170;28;20061;-96
2024/01/28 09:32:43;;;;;;;12.57;5.70;;;;;;;;;;5036152;28;20048;-96
2024/01/28 09:35:11;;;;;;;13.07;5.68;;;;;;;;;;5032425;28;20193;-96
2024/01/28 09:37:40;;;;;;;10.15;6.40;;;;;;;;;;5016676;28;20424;-96
2024/01/28 09:40:11;;;;;;;12.60;6.75;;;;;;;;;;5000164;28;20115;-94
2024/01/28 09:42:43;;;;;;;12.85;6.57;;;;;;;;;;5016219;28;20107;-95
2024/01/28 09:45:16;;;;;;;11.35;6.07;;;;;;;;;;5016323;28;20046;-94
2024/01/28 09:47:45;;;;;;;9.60;4.97;;;;;;;;;;5016888;28;20540;-96
2024/01/28 09:50:14;;;;;;;8.52;5.40;;;;;;;;;;5016221;28;20045;-95
2024/01/28 09:52:40;;;;;;;11.30;5.95;;;;;;;;;;5016489;28;20057;-95
2024/01/28 09:55:06;;;;;;;6.72;5.18;;;;;;;;;;5016263;28;20050;-95
2024/01/28 09:57:36;;;;;;;24.35;6.93;;;;;;;;;;5017456;28;20394;-95
2024/01/28 10:00:02;;;;;;;7.80;5.47;;;;;;;;;;5016546;28;20072;-96
2024/01/28 10:02:30;;;;;;;12.30;5.47;;;;;;;;;;5016499;28;20048;-95
2024/01/28 10:04:59;;;;;;;9.88;5.50;;;;;;;;;;5015843;28;20088;-96
2024/01/28 10:07:25;;;;;;;9.02;5.40;;;;;;;;;;5017466;28;20056;-96
2024/01/28 10:09:51;;;;;;;11.70;5.10;;;;;;;;;;5016629;28;20045;-95
2024/01/28 10:12:18;;;;;;;9.07;5.22;;;;;;;;;;5016237;28;20041;-95
2024/01/28 10:14:51;;;;;;;12.35;5.22;;;;;;;;;;5015771;28;20140;-95
2024/01/28 10:17:23;;;;;;;10.35;4.80;;;;;;;;;;5031544;28;20044;-95
2024/01/28 10:19:49;;;;;;;6.75;4.90;;;;;;;;;;5051109;28;20690;-96
2024/01/28 10:22:16;;;;;;;9.55;5.70;;;;;;;;;;5035489;28;20093;-96
2024/01/28 10:24:42;;;;;;;6.40;4.47;;;;;;;;;;5035193;28;20099;-95
2024/01/28 10:27:09;;;;;;;9.07;4.68;;;;;;;;;;5030453;28;20069;-96
2024/01/28 10:29:36;;;;;;;15.05;5.50;;;;;;;;;;5027212;28;20069;-95
2024/01/28 10:32:02;;;;;;;13.25;5.13;;;;;;;;;;5045774;28;20059;-95
2024/01/28 10:34:28;;;;;;;7.88;4.30;;;;;;;;;;5036505;28;20036;-95
2024/01/28 10:36:55;;;;;;;9.45;5.35;;;;;;;;;;5022405;28;20060;-96
2024/01/28 10:39:23;;;;;;;8.57;4.50;;;;;;;;;;5029592;28;20410;-96
2024/01/28 10:41:55;;;;;;;16.73;5.43;;;;;;;;;;5018605;28;20052;-96
2024/01/28 10:44:24;;;;;;;7.78;4.95;;;;;;;;;;5017421;28;20056;-95
2024/01/28 10:46:54;;;;;;;10.70;4.90;;;;;;;;;;5032959;28;20052;-96
2024/01/28 10:49:32;;;;;;;9.30;4.90;;;;;;;;;;5035998;28;20047;-95
2024/01/28 10:51:58;;;;;;;13.35;4.47;;;;;;;;;;5035627;28;20076;-94
2024/01/28 10:54:24;;;;;;;12.70;5.07;;;;;;;;;;5039228;28;20041;-95
2024/01/28 10:56:51;;;;;;;12.27;5.43;;;;;;;;;;5032247;28;20056;-94
2024/01/28 10:59:17;;;;;;;9.43;4.97;;;;;;;;;;5041418;28;20131;-96
2024/01/28 11:01:44;;;;;;;7.50;4.15;;;;;;;;;;5039341;28;20080;-94
2024/01/28 11:04:10;;;;;;;10.43;5.00;;;;;;;;;;5056641;28;20071;-96
2024/01/28 11:06:36;;;;;;;9.05;4.20;;;;;;;;;;5041236;28;20036;-96
2024/01/28 11:09:03;;;;;;;9.32;4.30;;;;;;;;;;5037963;28;20556;-96
2024/01/28 11:11:30;;;;;;;8.30;4.32;;;;;;;;;;5021205;28;20037;-96
2024/01/28 11:13:56;;;;;;;6.68;4.50;;;;;;;;;;5020198;28;20052;-96
2024/01/28 11:16:22;;;;;;;7.90;4.07;;;;;;;;;;5035990;28;20128;-96
2024/01/28 11:18:56;;;;;;;6.05;3.90;;;;;;;;;;5022816;28;20099;-95
2024/01/28 11:21:23;;;;;;;12.38;5.45;;;;;;;;;;5038661;28;20052;-96
2024/01/28 11:23:49;;;;;;;7.35;3.83;;;;;;;;;;5036762;28;20177;-96
2024/01/28 11:26:16;;;;;;;7.82;4.43;;;;;;;;;;5039782;28;20043;-94
2024/01/28 11:28:49;;;;;;;5.88;3.35;;;;;;;;;;5039488;28;20421;-95
2024/01/28 11:31:31;;;;;;;6.18;4.20;;;;;;;;;;5039019;28;20065;-95
2024/01/28 11:34:07;;;;;;;5.38;4.30;;;;;;;;;;5053816;28;20099;-94
2024/01/28 11:36:37;;;;;;;6.63;3.60;;;;;;;;;;5047401;28;20133;-95
2024/01/28 11:39:05;;;;;;;7.57;3.92;;;;;;;;;;5031706;28;20107;-96
2024/01/28 11:41:38;;;;;;;3.25;2.88;;;;;;;;;;5038747;28;20037;-96
2024/01/28 11:44:04;;;;;;;7.93;3.10;;;;;;;;;;5035407;28;20048;-96
2024/01/28 11:46:31;;;;;;;4.32;3.28;;;;;;;;;;5023413;28;20041;-94
2024/01/28 11:48:57;;;;;;;8.20;3.35;;;;;;;;;;5029153;28;20525;-95
2024/01/28 11:51:23;;;;;;;6.25;3.50;;;;;;;;;;5031025;28;20497;-95
2024/01/28 11:53:49;;;;;;;4.78;2.90;;;;;;;;;;5008954;28;20049;-95
2024/01/28 11:56:16;;;;;;;9.02;3.63;;;;;;;;;;5028830;28;20559;-95
2024/01/28 13:18:35;;;;;;;8.32;3.47;;;;;;;;;;1226663;23;21096;31
2024/01/28 13:22:18;;;;;;;;;;;;;;;;;;;;;
2024/01/28 13:54:58;;;;;;;;;;;;;;;;;;;;;
2024/01/28 14:09:19;;;;;;;;;;;;;;;;;;;;;
2024/01/28 14:12:18;;;;;;;4.18;2.33;;;;;;;;;;4943490;29;20167;-93
2024/01/28 15:04:00;;;;;;;;;;;;;;;;;;;;;
2024/01/28 15:06:56;;;;;;;4.07;2.47;;;;;;;;;;4880893;29;20051;-91
2024/01/28 15:10:04;;;;;;;3.35;2.58;;;;;;;;;;4886280;29;20060;-93
2024/01/28 15:12:56;;;;;;;3.83;2.83;;;;;;;;;;4891181;29;20056;-93
2024/01/28 15:19:40;;;;;;;5.10;2.80;;;;;;;;;;5075857;23;20055;-92
2024/01/28 15:22:31;;;;;;;16.02;3.90;;;;;;;;;;4935444;29;20051;-94
2024/01/28 15:27:37;;;;;;;9.18;3.38;;;;;;;;;;5049250;23;20468;-92
2024/01/28 15:33:17;;;;;;;5.53;2.85;;;;;;;;;;3991479;26;20072;-91
2024/01/28 15:40:14;;;;;;;;;;;;;;;;;;;;;
2024/01/28 15:57:11;;;;;;;9.40;2.95;;;;;;;;;;5204945;23;20505;-92
